• Join FlightAware (Why Join?)
  • Login
  • US Flag 
01:14AM EDT


 

Airport Tracker/Info


-or-


 

Live Flight TrackerFlight Track Log ✈ 9Y-BGI ✈ 14-Apr-2013 ✈ SMJP / PBM - TTPP / POS

Flight Track Log - Related Links

Times and Time Zones

All times are in EDT time to prevent confusion due to time zone crossing. See the 9Y-BGI flight status page for this flight to view local times or setup timezone preferences in your user account.

Time Position Orientation Groundspeed Altitude Reporting Facility
EDT Latitude Longitude Course Direction KTS MPH feet Rate Location/Type
05:11AM 6.7462 -56.7109 311° West  Level Estimated
05:12AM 6.8221 -56.8007 310° West  Level Estimated
05:13AM 6.8980 -56.8906 310° West  Level Estimated
05:14AM 6.9739 -56.9805 310° West  Level Estimated
05:15AM 7.0498 -57.0704 310° West  Level Estimated
05:16AM 7.1257 -57.1603 310° West  Level Estimated
05:17AM 7.2016 -57.2503 310° West  Level Estimated
05:18AM 7.2774 -57.3403 310° West  Level Estimated
05:19AM 7.3532 -57.4304 310° West  Level Estimated
05:20AM 7.4290 -57.5204 310° West  Level Estimated
05:21AM 7.5048 -57.6105 310° West  Level Estimated
05:22AM 7.5806 -57.7007 310° West  Level Estimated
05:23AM 7.6563 -57.7908 310° West  Level Estimated
05:24AM 7.7320 -57.8810 310° West  Level Estimated
05:25AM 7.8078 -57.9712 310° West  Level Estimated
05:26AM 7.8834 -58.0615 310° West  Level Estimated
05:27AM 7.9591 -58.1518 310° West  Level Estimated
05:28AM 8.0348 -58.2421 310° West  Level Estimated
05:29AM 8.1104 -58.3325 310° West  Level Estimated
05:30AM 8.1860 -58.4229 310° West  Level Estimated
05:31AM 8.2616 -58.5133 310° West  Level Estimated
05:32AM 8.3372 -58.6038 310° West  Level Estimated
05:33AM 8.4127 -58.6943 310° West  Level Estimated
05:34AM 8.4882 -58.7848 310° West  Level Estimated
05:35AM 8.5638 -58.8754 310° West  Level Estimated
05:36AM 8.6392 -58.9660 310° West  Level Estimated
05:37AM 8.7147 -59.0566 310° West  Level Estimated
05:38AM 8.7901 -59.1473 310° West  Level Estimated
05:39AM 8.8656 -59.2380 310° West  Level Estimated
05:40AM 8.9410 -59.3288 310° West  Level Estimated
05:41AM 9.0163 -59.4196 310° West  Level Estimated
05:42AM 9.0917 -59.5104 310° West  Level Estimated
05:43AM 9.1670 -59.6012 310° West  Level Estimated
05:44AM 9.2423 -59.6922 310° West  Level Estimated
05:45AM 9.3176 -59.7831 310° West  Level Estimated
05:46AM 9.3929 -59.8741 310° West  Level Estimated
05:47AM 9.4682 -59.9651 310° West  Level Estimated
05:48AM 9.5434 -60.0561 310° West  Level Estimated
05:49AM 9.6186 -60.1473 310° West  Level Estimated
05:50AM 9.6937 -60.2384 310° West  Level Estimated
05:51AM 9.7689 -60.3296 310° West  Level Estimated
05:52AM 9.8440 -60.4208 310° West  Level Estimated
05:53AM 9.9191 -60.5121 310° West  Level Estimated
05:54AM 9.9942 -60.6034 310° West  Level Estimated
05:55AM 10.0692 -60.6947 310° West  Level Estimated
05:56AM 10.1442 -60.7861 310° West  Level Estimated
05:57AM 10.2192 -60.8776 310° West  Level Estimated
05:58AM 10.2942 -60.9690 310° West  Level Estimated
05:59AM 10.3692 -61.0606 310° West  Level Estimated
06:00AM 10.4441 -61.1521 310° West  Level Estimated
06:01AM 10.5190 -61.2437 310° West  Level Estimated
06:02AM 10.5939 -61.3354 310° West  Level Estimated
06:03AM 10.5954 -61.3372 310° West  Level Estimated
06:04AM 10.5954 -61.3372 243° Southwest  Level Estimated
06:05AM 10.5954 -61.3372 243° Southwest  Level Estimated
06:06AM 10.5954 -61.3372 243° Southwest  Level Estimated
06:07AM 10.5954 -61.3372 243° Southwest  Level Estimated
06:08AM 10.5954 -61.3372 243° Southwest  Level Estimated
06:09AM 10.5954 -61.3372 243° Southwest  Level Estimated
06:10AM 10.5954 -61.3372 243° Southwest  Level Estimated
06:11AM 10.5954 -61.3372 243° Southwest  Level Estimated
06:12AM 10.5954 -61.3372 243° Southwest  Level Estimated
06:13AM 10.5954 -61.3372 243° Southwest  Level Estimated
06:14AM 10.5954 -61.3372 243° Southwest  Level Estimated
06:15AM 10.5954 -61.3372 243° Southwest  Level Estimated
06:16AM 10.5954 -61.3372 243° Southwest  Level Estimated
06:17AM 10.5954 -61.3372 243° Southwest  Level Estimated
06:18AM 10.5954 -61.3372 243° Southwest  Level Estimated